Skip Navigation Links
NOAA logo - Click to go to the NOAA homepage
NOAA's National Weather Service
Alaska Aviation Weather Unit
  NWS logo - Click to go to the NWS homepage
Left Navbar Graphic     23 AKDT = 07 GMT

   
NOAA is celebrating 200 years of science, service, and stewardship. Visit the NOAA 200th celebration Web site to learn more.
USA.gov is the U.S. Government's official Web portal to all Federal, state and local government Web resources and services.
Facebook
NWS on Facebook

Important Change Regarding the AAWU Web Presence

 

Over the last several months, the AAWU has been working to navigate its webpages to a nationally supported server. Security, as well as other needs, have necessitated the change.  In the process, we have made an effort to enhance the functionality of our website, as well as some of our products. As of June 20, 2017, aawu.arh.noaa.gov will be discontinued. The new AAWU web address is weather.gov/aawu. It is now live and will run in-parallel with the old site until it is discontinued. Please send any feedback or questions regarding the new webpages to nws.ar.aawu.webauthors@noaa.gov.  Thank you for your patience during this time of transition.
AAWU Home :: Display TAF Add Bookmark
TAF PAED 240622Z 2406/2509 21009KT 9999 SCT040 SCT080
      QNH3000INS
      BECMG 2412/2413 24009KT 9999 VCSH SCT055 BKN120 QNH2995INS
      BECMG 2414/2415 25015G25KT 9000 -SHRA SCT020 OVC040 610409
      QNH2982INS TX15/2503Z TN06/2414Z=

METAR PAED 240158Z AUTO 23014KT 10SM CLR 11/01 A3001= METAR PAED 240258Z AUTO 23015KT 180V250 10SM CLR 10/03 A3001= METAR PAED 240358Z AUTO 23010KT 10SM CLR 10/02 A3001= METAR PAED 240458Z AUTO 23010KT 10SM CLR 09/02 A3002= METAR PAED 240558Z AUTO VRB05KT 10SM CLR 08/02 A3002= METAR PAED 240658Z AUTO VRB05KT 10SM CLR 07/03 A3003=
 Alaska TAF Map

NOAA's National Weather Service
Alaska Aviation Weather Unit
6930 Sand Lake Road
Anchorage, AK 99502-1845
Disclaimer
Credits
Glossary
Privacy Policy
About Us
Career Opportunities
Contact AAWU Internet Services Site last modified: April, 17th 2012